LexMAWeather

Lexington, Massachusetts, USA

69°F
8/19/2018 5:20pm 
  • Lexington Conditions: Clear
  • Temperature: 69.3°F / 20.7°CColder 0.1°F than last hour.
  • Dew Point: 61.7°FDecreased 0.2°Fsince last hour.
  • Relative Humidity: 77
  • Wind: W 1 mph, 10-min avg: 2 mph, gust: 7 mph
  • Barometer: 30.03 in Steady
  • Visibility: 10 miles
  • Rain Today: 0.00 in
  •   

Nearby Reports - Official Weather Stations - Current Conditions

Data from the National Weather Service

KBED - Bedford, MA


Distance from station: WNW 4mi, 6km

Updated Sun Aug 19, 2018 4:56pm EDT

Clear

Clear

Wind from ENE

Wind:

ENE 15 mph , 24 km/h

Temperature: 72°F (22°C)

Dew Point: 57°F (14°C)

Humidity: 61%

Barometer: 30.06 in (1017.9 hPa)

Clouds: Clear

Visibility: 10 miles (16 km)


2018/08/19 20:56 KBED 192056Z 06013KT 10SM CLR 22/14 A3006 RMK AO2 SLP189 T02220144 51006

KBOS - Boston, MA


Distance from station: ESE 12mi, 20km

Updated Sun Aug 19, 2018 4:58pm EDT

Mostly cloudy

Mostly cloudy

Wind from ENE

Wind:

ENE 17 mph , 28 km/h

Temperature: 70°F (21°C)

Dew Point: 61°F (16°C)

Humidity: 73%

Barometer: 30.07 in (1018.3 hPa)

Clouds: Mostly cloudy

Visibility: 10 miles (16 km)

Cloud details: Mostly cloudy 2200 ft


2018/08/19 20:58 KBOS 192058Z 06015KT 10SM BKN022 21/16 A3007 RMK AO2 T02110156 $

KOWD - Norwood, MA


Distance from station: SSE 18mi, 29km

Updated Sun Aug 19, 2018 4:53pm EDT

Mostly cloudy

Mostly cloudy

Wind from ENE

Wind:

ENE 15 mph , 24 km/h,
Gust: 24 mph , 39 km/h

Temperature: 72°F (22°C)

Dew Point: 61°F (16°C)

Humidity: 69%

Barometer: 30.05 in (1017.6 hPa)

Clouds: Mostly cloudy

Visibility: 10 miles (16 km)

Cloud details: Partly cloudy 2200 ft
Mostly cloudy 2900 ft


2018/08/19 20:53 KOWD 192053Z 07013G21KT 10SM SCT022 BKN029 22/16 A3005 RMK AO2 SLP175 T02170156 51005

KBVY - Beverly, MA


Distance from station: ENE 19mi, 31km

Updated Sun Aug 19, 2018 5:23pm EDT

Mostly cloudy

Mostly cloudy

Wind from ENE

Wind:

ENE 12 mph , 19 km/h

Temperature: 70°F (21°C)

Dew Point: 61°F (16°C)

Humidity: 73%

Barometer: 30.07 in (1018.3 hPa)

Clouds: Mostly cloudy

Visibility: 10 miles (16 km)

Cloud details: Mostly cloudy 2300 ft


2018/08/19 21:23 KBVY 192123Z 06010KT 10SM BKN023 21/16 A3007 RMK AO2 T02060156

KLWM - Lawrence, MA


Distance from station: NNE 20mi, 32km

Updated Sun Aug 19, 2018 4:54pm EDT

Mostly cloudy

Mostly cloudy

Wind from E

Wind:

E 10 mph , 17 km/h

Temperature: 72°F (22°C)

Dew Point: 59°F (15°C)

Humidity: 65%

Barometer: 30.10 in (1019.3 hPa)

Clouds: Mostly cloudy

Visibility: 10 miles (16 km)

Cloud details: Mostly cloudy 2300 ft


2018/08/19 20:54 KLWM 192054Z 09009KT 10SM BKN023 22/15 A3010 RMK AO2 SLP191 T02220150 53007

KFIT - Fitchburg, MA


Distance from station: WNW 27mi, 44km

Updated Sun Aug 19, 2018 4:52pm EDT

Clear

Clear

Wind from varies

Wind:

varies 6 mph , 9 km/h

Temperature: 72°F (22°C)

Dew Point: 57°F (14°C)

Humidity: 61%

Barometer: 30.07 in (1018.3 hPa)

Clouds: Clear

Visibility: 10 miles (16 km)


2018/08/19 20:52 KFIT 192052Z AUTO VRB05KT 10SM CLR 22/14 A3007 RMK AO2 SLP181 T02220139 51004

KASH - Nashua/Boire Fld, NH


Distance from station: NNW 28mi, 44km

Updated Sun Aug 19, 2018 4:56pm EDT

Partly cloudy

Partly cloudy

Wind from SE

Wind:

SE 9 mph , 15 km/h

Temperature: 75°F (24°C)

Dew Point: 61°F (16°C)

Humidity: 61%

Barometer: 30.07 in (1018.3 hPa)

Clouds: Partly cloudy

Visibility: 10 miles (16 km)

Cloud details: Partly cloudy 4500 ft


2018/08/19 20:56 KASH 192056Z 13008KT 10SM SCT045 24/16 A3007 RMK AO2 SLP191 6//// T02390156 53005 PNO $

KORH - Worcester, MA


Distance from station: WSW 34mi, 55km

Updated Sun Aug 19, 2018 4:54pm EDT

Few Clouds

Few Clouds

Wind from NE

Wind:

NE 10 mph , 17 km/h,
Gust: 20 mph , 31 km/h

Temperature: 70°F (21°C)

Dew Point: 55°F (13°C)

Humidity: 60%

Barometer: 30.08 in (1018.6 hPa)

Clouds: Few Clouds

Visibility: 10 miles (16 km)

Cloud details: Few Clouds 3500 ft


2018/08/19 20:54 KORH 192054Z 04009G17KT 10SM FEW035 21/13 A3008 RMK AO2 SLP183 T02110128 53006

KMHT - Manchester, NH


Distance from station: NNW 35mi, 57km

Updated Sun Aug 19, 2018 4:53pm EDT

Partly cloudy

Partly cloudy

Wind from E

Wind:

E 14 mph , 22 km/h

Temperature: 73°F (23°C)

Dew Point: 59°F (15°C)

Humidity: 61%

Barometer: 30.05 in (1017.6 hPa)

Clouds: Partly cloudy

Visibility: 10 miles (16 km)

Cloud details: Few Clouds 5500 ft
Partly cloudy 25000 ft


2018/08/19 20:53 KMHT 192053Z 08012KT 10SM FEW055 SCT250 23/15 A3005 RMK AO2 SLP187 T02330150 53004 $

KGHG - Marshfield, MA


Distance from station: SE 38mi, 60km

Updated Sun Aug 19, 2018 5:15pm EDT

Overcast

Overcast

Wind from NE

Wind:

NE 9 mph , 15 km/h,
Gust: 17 mph , 28 km/h

Temperature: 68°F (20°C)

Dew Point: 63°F (17°C)

Humidity: 83%

Barometer: 30.06 in (1017.9 hPa)

Clouds: Overcast

Visibility: 10 miles (16 km)

Cloud details: Partly cloudy 1800 ft
Overcast 2300 ft


2018/08/19 21:15 KGHG 192115Z AUTO 05008G15KT 010V080 10SM SCT018 OVC023 20/17 A3006 RMK AO2

KSFZ - Pawtucket, RI


Distance from station: SSW 39mi, 62km

Updated Sun Aug 19, 2018 3:56pm EDT (NOT Current)

Mostly cloudy

Mostly cloudy

Wind from ENE

Wind:

ENE 14 mph , 22 km/h,
Gust: 22 mph , 35 km/h

Temperature: 72°F (22°C)

Dew Point: 59°F (15°C)

Humidity: 65%

Barometer: 30.05 in (1017.6 hPa)

Clouds: Mostly cloudy

Visibility: 10 miles (16 km)

Cloud details: Mostly cloudy 2700 ft


2018/08/19 19:56 KSFZ 191956Z AUTO 06012G19KT 10SM BKN027 22/15 A3005 RMK AO2 SLP119 T02170150

KTAN - Taunton, MA


Distance from station: SSE 40mi, 65km

Updated Sun Aug 19, 2018 5:18pm EDT

Overcast

Overcast

Wind from varies

Wind:

varies 7 mph , 11 km/h,
Gust: 18 mph , 30 km/h

Temperature: 70°F (21°C)

Dew Point: 61°F (16°C)

Humidity: 73%

Barometer: 30.05 in (1017.6 hPa)

Clouds: Overcast

Visibility: 10 miles (16 km)

Cloud details: Mostly cloudy 2700 ft
Overcast 3200 ft


2018/08/19 21:18 KTAN 192118Z AUTO VRB06G16KT 10SM BKN027 OVC032 21/16 A3005 RMK AO2 T02060156

KPYM - Plymouth, MA


Distance from station: SE 44mi, 72km

Updated Sun Aug 19, 2018 4:52pm EDT

Overcast

Overcast

Wind from NNE

Wind:

NNE 16 mph , 26 km/h,
Gust: 23 mph , 37 km/h

Temperature: 68°F (20°C)

Dew Point: 61°F (16°C)

Humidity: 78%

Barometer: 30.05 in (1017.6 hPa)

Clouds: Overcast

Visibility: 10 miles (16 km)

Cloud details: Partly cloudy 1400 ft
Overcast 2300 ft


2018/08/19 20:52 KPYM 192052Z AUTO 02014G20KT 10SM SCT014 OVC023 20/16 A3005 RMK AO2 SLP174 T02000161 51007

KAFN - Jaffrey, NH


Distance from station: WNW 46mi, 74km

Updated Sun Aug 19, 2018 4:52pm EDT

Clear

Clear

Wind from varies

Wind:

varies 3 mph , 6 km/h

Temperature: 73°F (23°C)

Dew Point: 55°F (13°C)

Humidity: 53%

Barometer: 30.09 in (1019 hPa)

Clouds: Clear

Visibility: 10 miles (16 km)


2018/08/19 20:52 KAFN 192052Z AUTO VRB03KT 10SM CLR 23/13 A3009 RMK AO2 SLP190 T02280128 51004

KPSM - Portsmouth/Pease, NH


Distance from station: NNE 48mi, 78km

Updated Sun Aug 19, 2018 4:56pm EDT

Partly cloudy

Partly cloudy

Wind from E

Wind:

E 10 mph , 17 km/h

Temperature: 70°F (21°C)

Dew Point: 57°F (14°C)

Humidity: 64%

Barometer: 30.07 in (1018.3 hPa)

Clouds: Partly cloudy

Visibility: 10 miles (16 km)

Cloud details: Few Clouds 4000 ft
Partly cloudy 25000 ft


2018/08/19 20:56 KPSM 192056Z 08009KT 10SM FEW040 SCT250 21/14 A3007 RMK AO2A SLP185 T02090143 51005

KPVD - Providence/Green, RI


Distance from station: S 51mi, 82km

Updated Sun Aug 19, 2018 4:51pm EDT

Mostly cloudy

Mostly cloudy

Wind from NE

Wind:

NE 22 mph , 35 km/h,
Gust: 29 mph , 46 km/h

Temperature: 72°F (22°C)

Dew Point: 57°F (14°C)

Humidity: 61%

Barometer: 30.05 in (1017.6 hPa)

Clouds: Mostly cloudy

Visibility: 10 miles (16 km)

Cloud details: Mostly cloudy 3400 ft


2018/08/19 20:51 KPVD 192051Z 05019G25KT 10SM BKN034 22/14 A3005 RMK AO2 SLP174 T02170139 53009

KCON - Concord, NH


Distance from station: NNW 54mi, 87km

Updated Sun Aug 19, 2018 4:51pm EDT

Partly cloudy

Partly cloudy

Wind from ESE

Wind:

ESE 6 mph , 9 km/h

Temperature: 77°F (25°C)

Dew Point: 57°F (14°C)

Humidity: 51%

Barometer: 30.05 in (1017.6 hPa)

Clouds: Partly cloudy

Visibility: 10 miles (16 km)

Cloud details: Partly cloudy 5500 ft


2018/08/19 20:51 KCON 192051Z AUTO 12005KT 10SM SCT055 25/14 A3005 RMK AO2 SLP175 T02500139 55001

KEWB - New Bedford, MA


Distance from station: SSE 54mi, 87km

Updated Sun Aug 19, 2018 4:53pm EDT

Overcast

Overcast

Wind from NNE

Wind:

NNE 9 mph , 15 km/h,
Gust: 21 mph , 33 km/h

Temperature: 66°F (19°C)

Dew Point: 63°F (17°C)

Humidity: 88%

Barometer: 30.03 in (1016.9 hPa)

Clouds: Overcast

Visibility: 10 miles (16 km)

Cloud details: Overcast 2000 ft


2018/08/19 20:53 KEWB 192053Z 03008G18KT 10SM OVC020 19/17 A3003 RMK AO2 SLP168 T01940167 53009

KMWN - Mount Washington, NH


Distance from station: N 126mi, 203km

Updated Sun Aug 19, 2018 3:58pm EDT (NOT Current)

Partly cloudy

Partly cloudy

Wind from NE

Wind:

NE 2 mph , 4 km/h

Temperature: 50°F (10°C)

Dew Point: 43°F (6°C)

Humidity: 76%

Clouds: Partly cloudy

Visibility: 60 miles (96 km)

Cloud details: Few Clouds 1000 ft
Few Clouds 12000 ft
Partly cloudy 16000 ft


2018/08/19 19:58 KMWN 191958Z 04002KT 60SM FEW010 FEW120 SCT160 10/06 RMK